Thunder radar more information blitzortung!


Radar de pluja more information rain snow radar


Visita la nostra xarxa de llocs de meteo:

Template documentation
and downloads

And another site



No particular awareness of the weather is required.    There are no Weather-warnings

Pagina Historial Weather Underground text

Diari Resum Juny 1, 2017 Unitats:  Tant    Imperial   Mètric
« Previous Dia
SegĂźent Dia »
Diari Setmana Mensual Anual Personalitzada
  Maxima: Minima: Media:
Temperatura: 84.9 °F /  29.4 °C 60.3 °F /  15.7 °C 75.4 °F /  24.1 °C
Punt de rosada: 55 °F /  12.8 °C 45.7 °F /  7.6 °C 50.2 °F /  10.1 °C
Humitat: 70 % 29 % 43 %
Wind Speed: 11.5 mph /  18.5 km/h - 4 mph /  6.4 km/h
RĂ fegues de vent: 11.5 mph /  18.5 km/h - -
Vent:- - South
Pression baro: 30.1 in /  1019.9 hPa 30 in /  1015.8 hPa -
Precipitacions: 0 in /  0.0 mm    
Historical Graphs
 
 
Dades de taula per Juny 1, 2017
Temps Temperatura Punt de rosada Pression baro Vent Wind Speed RĂ fegues de vent Humitat Rainfall Rate (Hourly)
00:01 66 °F /  18.9 °C 50.7 °F /  10.4 °C 30.1 in /  1019.9 hPa Calm     58 % 0 in /  0.0 mm
00:05 61.7 °F /  16.5 °C 48.9 °F /  9.4 °C 30.1 in /  1017.8 hPa East 1 mph /  1.6 km/h 2 mph /  3.2 km/h 63 % 0 in /  0.0 mm
00:06 66 °F /  18.9 °C 50.7 °F /  10.4 °C 30.1 in /  1019.9 hPa Calm     58 % 0 in /  0.0 mm
00:15 61.5 °F /  16.4 °C 48.7 °F /  9.3 °C 30.1 in /  1017.8 hPa Calm   2 mph /  3.2 km/h 63 % 0 in /  0.0 mm
00:25 61.2 °F /  16.2 °C 48.6 °F /  9.2 °C 30.1 in /  1017.8 hPa Calm   1 mph /  1.6 km/h 63 % 0 in /  0.0 mm
00:35 60.8 °F /  16.0 °C 48 °F /  8.9 °C 30 in /  1016.8 hPa Calm   2 mph /  3.2 km/h 63 % 0 in /  0.0 mm
00:45 60.8 °F /  16.0 °C 48 °F /  8.9 °C 30 in /  1016.8 hPa Calm     63 % 0 in /  0.0 mm
00:55 60.4 °F /  15.8 °C 47.8 °F /  8.8 °C 30.1 in /  1017.8 hPa Calm     63 % 0 in /  0.0 mm
01:05 60.4 °F /  15.8 °C 48.2 °F /  9.0 °C 30.1 in /  1017.8 hPa Calm     64 % 0 in /  0.0 mm
01:15 60.4 °F /  15.8 °C 48.2 °F /  9.0 °C 30.1 in /  1017.8 hPa Calm   1 mph /  1.6 km/h 64 % 0 in /  0.0 mm
01:25 60.6 °F /  15.9 °C 47.8 °F /  8.8 °C 30.1 in /  1017.8 hPa NNE 1 mph /  1.6 km/h 1 mph /  1.6 km/h 63 % 0 in /  0.0 mm
01:35 61 °F /  16.1 °C 48.7 °F /  9.3 °C 30.1 in /  1017.8 hPa North 1 mph /  1.6 km/h 1 mph /  1.6 km/h 64 % 0 in /  0.0 mm
01:45 60.8 °F /  16.0 °C 48.6 °F /  9.2 °C 30.1 in /  1017.8 hPa Calm     64 % 0 in /  0.0 mm
01:55 60.4 °F /  15.8 °C 48.6 °F /  9.2 °C 30.1 in /  1017.8 hPa Calm     65 % 0 in /  0.0 mm
02:05 60.3 °F /  15.7 °C 48 °F /  8.9 °C 30.1 in /  1017.8 hPa NW 1 mph /  1.6 km/h 1 mph /  1.6 km/h 64 % 0 in /  0.0 mm
02:15 60.4 °F /  15.8 °C 48.2 °F /  9.0 °C 30.1 in /  1017.8 hPa Calm   1 mph /  1.6 km/h 64 % 0 in /  0.0 mm
02:25 61.3 °F /  16.3 °C 48.6 °F /  9.2 °C 30.1 in /  1018.8 hPa WSW 1 mph /  1.6 km/h 2 mph /  3.2 km/h 63 % 0 in /  0.0 mm
02:35 62.8 °F /  17.1 °C 50 °F /  10.0 °C 30.1 in /  1018.8 hPa Calm   1 mph /  1.6 km/h 63 % 0 in /  0.0 mm
02:45 63.7 °F /  17.6 °C 50.4 °F /  10.2 °C 30.1 in /  1018.8 hPa Calm   2 mph /  3.2 km/h 62 % 0 in /  0.0 mm
02:55 64.4 °F /  18.0 °C 50.2 °F /  10.1 °C 30.1 in /  1018.8 hPa SE 1 mph /  1.6 km/h 2 mph /  3.2 km/h 60 % 0 in /  0.0 mm
03:05 64.6 °F /  18.1 °C 50.4 °F /  10.2 °C 30.1 in /  1018.8 hPa SSE 1 mph /  1.6 km/h 2 mph /  3.2 km/h 60 % 0 in /  0.0 mm
03:15 65.3 °F /  18.5 °C 50.5 °F /  10.3 °C 30.1 in /  1018.8 hPa Calm   2 mph /  3.2 km/h 59 % 0 in /  0.0 mm
03:25 65.7 °F /  18.7 °C 50.9 °F /  10.5 °C 30.1 in /  1018.8 hPa ENE 1 mph /  1.6 km/h 3 mph /  4.8 km/h 59 % 0 in /  0.0 mm
03:35 66.2 °F /  19.0 °C 51.1 °F /  10.6 °C 30.1 in /  1018.8 hPa NE 1 mph /  1.6 km/h 3 mph /  4.8 km/h 58 % 0 in /  0.0 mm
03:45 67.6 °F /  19.8 °C 52.3 °F /  11.3 °C 30.1 in /  1018.8 hPa NE 1 mph /  1.6 km/h 2 mph /  3.2 km/h 58 % 0 in /  0.0 mm
04:05 68.7 °F /  20.4 °C 52.3 °F /  11.3 °C 30.1 in /  1018.8 hPa NNE 2 mph /  3.2 km/h 3 mph /  4.8 km/h 56 % 0 in /  0.0 mm
04:15 69.3 °F /  20.7 °C 52.9 °F /  11.6 °C 30.1 in /  1018.8 hPa NE 3 mph /  4.8 km/h 3 mph /  4.8 km/h 56 % 0 in /  0.0 mm
04:25 69.6 °F /  20.9 °C 52.7 °F /  11.5 °C 30.1 in /  1018.8 hPa NNE 3 mph /  4.8 km/h 3 mph /  4.8 km/h 55 % 0 in /  0.0 mm
04:35 70.5 °F /  21.4 °C 52.5 °F /  11.4 °C 30.1 in /  1018.8 hPa NNE 3 mph /  4.8 km/h 4 mph /  6.4 km/h 53 % 0 in /  0.0 mm
04:45 71.8 °F /  22.1 °C 53.8 °F /  12.1 °C 30.1 in /  1018.8 hPa NE 2 mph /  3.2 km/h 3 mph /  4.8 km/h 53 % 0 in /  0.0 mm
04:55 71.8 °F /  22.1 °C 52.7 °F /  11.5 °C 30.1 in /  1018.8 hPa ENE 1 mph /  1.6 km/h 4 mph /  6.4 km/h 51 % 0 in /  0.0 mm
05:05 73.9 °F /  23.3 °C 54.1 °F /  12.3 °C 30.1 in /  1018.8 hPa ENE 1 mph /  1.6 km/h 1 mph /  1.6 km/h 50 % 0 in /  0.0 mm
05:15 74.7 °F /  23.7 °C 54.1 °F /  12.3 °C 30.1 in /  1018.8 hPa Calm   3 mph /  4.8 km/h 49 % 0 in /  0.0 mm
05:25 74.1 °F /  23.4 °C 53.2 °F /  11.8 °C 30.1 in /  1018.8 hPa ENE 1 mph /  1.6 km/h 4 mph /  6.4 km/h 48 % 0 in /  0.0 mm
05:35 74.5 °F /  23.6 °C 52.9 °F /  11.6 °C 30.1 in /  1018.8 hPa ENE 3 mph /  4.8 km/h 4 mph /  6.4 km/h 47 % 0 in /  0.0 mm
05:45 75.9 °F /  24.4 °C 53.6 °F /  12.0 °C 30.1 in /  1018.8 hPa ESE 2 mph /  3.2 km/h 3 mph /  4.8 km/h 46 % 0 in /  0.0 mm
05:55 77.4 °F /  25.2 °C 54.3 °F /  12.4 °C 30.1 in /  1018.8 hPa SSE 1 mph /  1.6 km/h 4 mph /  6.4 km/h 45 % 0 in /  0.0 mm
06:05 77.9 °F /  25.5 °C 54.1 °F /  12.3 °C 30.1 in /  1018.8 hPa SW 1 mph /  1.6 km/h 2 mph /  3.2 km/h 44 % 0 in /  0.0 mm
11:08 78.8 °F /  26.0 °C 55 °F /  12.8 °C 30.1 in /  1018.8 hPa SW 4.3 mph /  6.9 km/h 4.3 mph /  6.9 km/h 44 % 0 in /  0.0 mm
11:13 77.5 °F /  25.3 °C 53.2 °F /  11.8 °C 30.1 in /  1018.8 hPa SE 3.5 mph /  5.6 km/h 3.5 mph /  5.6 km/h 43 % 0 in /  0.0 mm
11:18 78.6 °F /  25.9 °C 54.1 °F /  12.3 °C 30.1 in /  1018.8 hPa SSW 3.5 mph /  5.6 km/h 3.5 mph /  5.6 km/h 43 % 0 in /  0.0 mm
11:23 78.3 °F /  25.7 °C 54 °F /  12.2 °C 30.1 in /  1018.8 hPa West 4.9 mph /  7.9 km/h 4.9 mph /  7.9 km/h 43 % 0 in /  0.0 mm
11:28 77.7 °F /  25.4 °C 53.4 °F /  11.9 °C 30.1 in /  1018.8 hPa WSW 5.8 mph /  9.3 km/h 5.8 mph /  9.3 km/h 43 % 0 in /  0.0 mm
11:33 77.4 °F /  25.2 °C 53.1 °F /  11.7 °C 30.1 in /  1018.8 hPa WSW 5.8 mph /  9.3 km/h 5.8 mph /  9.3 km/h 43 % 0 in /  0.0 mm
11:38 77.5 °F /  25.3 °C 52.5 °F /  11.4 °C 30.1 in /  1018.8 hPa SW 5.8 mph /  9.3 km/h 5.8 mph /  9.3 km/h 42 % 0 in /  0.0 mm
11:43 78.3 °F /  25.7 °C 53.2 °F /  11.8 °C 30.1 in /  1018.8 hPa SSW 4.6 mph /  7.4 km/h 4.6 mph /  7.4 km/h 42 % 0 in /  0.0 mm
11:48 78.1 °F /  25.6 °C 52.5 °F /  11.4 °C 30.1 in /  1018.8 hPa SW 5.8 mph /  9.3 km/h 5.8 mph /  9.3 km/h 41 % 0 in /  0.0 mm
11:53 79.5 °F /  26.4 °C 53.8 °F /  12.1 °C 30.1 in /  1018.8 hPa WSW 1.2 mph /  1.9 km/h   41 % 0 in /  0.0 mm
11:58 79 °F /  26.1 °C 53.2 °F /  11.8 °C 30.1 in /  1018.8 hPa SW 4.6 mph /  7.4 km/h 4.6 mph /  7.4 km/h 41 % 0 in /  0.0 mm
12:03 79.7 °F /  26.5 °C 53.2 °F /  11.8 °C 30.1 in /  1018.8 hPa ESE 5.8 mph /  9.3 km/h 5.8 mph /  9.3 km/h 40 % 0 in /  0.0 mm
12:04 79.7 °F /  26.5 °C 53.2 °F /  11.8 °C 30.1 in /  1018.8 hPa NE 4.3 mph /  6.9 km/h 4.3 mph /  6.9 km/h 40 % 0 in /  0.0 mm
12:09 78.3 °F /  25.7 °C 51.3 °F /  10.7 °C 30.1 in /  1018.8 hPa ESE 6.9 mph /  11.1 km/h 6.9 mph /  11.1 km/h 39 % 0 in /  0.0 mm
12:14 80.1 °F /  26.7 °C 53.6 °F /  12.0 °C 30.1 in /  1018.8 hPa WSW 4.6 mph /  7.4 km/h 4.6 mph /  7.4 km/h 40 % 0 in /  0.0 mm
12:19 81.5 °F /  27.5 °C 53.4 °F /  11.9 °C 30.1 in /  1018.8 hPa SW 4.6 mph /  7.4 km/h 4.6 mph /  7.4 km/h 38 % 0 in /  0.0 mm
12:24 80.6 °F /  27.0 °C 52.5 °F /  11.4 °C 30.1 in /  1018.8 hPa WNW 3.5 mph /  5.6 km/h 3.5 mph /  5.6 km/h 38 % 0 in /  0.0 mm
12:29 81 °F /  27.2 °C 53.1 °F /  11.7 °C 30.1 in /  1018.8 hPa SSW 2.3 mph /  3.7 km/h 2.3 mph /  3.7 km/h 38 % 0 in /  0.0 mm
12:34 81.1 °F /  27.3 °C 53.1 °F /  11.7 °C 30.1 in /  1018.8 hPa SE 4.6 mph /  7.4 km/h 4.6 mph /  7.4 km/h 38 % 0 in /  0.0 mm
12:39 81.5 °F /  27.5 °C 53.4 °F /  11.9 °C 30.1 in /  1018.8 hPa SSE 9.2 mph /  14.8 km/h 9.2 mph /  14.8 km/h 38 % 0 in /  0.0 mm
12:44 81.9 °F /  27.7 °C 53.1 °F /  11.7 °C 30.1 in /  1018.8 hPa ESE 2.3 mph /  3.7 km/h 2.3 mph /  3.7 km/h 37 % 0 in /  0.0 mm
12:49 81.3 °F /  27.4 °C 53.2 °F /  11.8 °C 30.1 in /  1018.8 hPa SSE 5.8 mph /  9.3 km/h 5.8 mph /  9.3 km/h 38 % 0 in /  0.0 mm
12:54 79.9 °F /  26.6 °C 52.7 °F /  11.5 °C 30.1 in /  1018.8 hPa ENE 3.6 mph /  5.8 km/h 3.6 mph /  5.8 km/h 39 % 0 in /  0.0 mm
12:59 81 °F /  27.2 °C 53.8 °F /  12.1 °C 30.1 in /  1018.8 hPa West 6.9 mph /  11.1 km/h 6.9 mph /  11.1 km/h 39 % 0 in /  0.0 mm
13:04 81.9 °F /  27.7 °C 54.5 °F /  12.5 °C 30.1 in /  1018.8 hPa SE 4.6 mph /  7.4 km/h 4.6 mph /  7.4 km/h 39 % 0 in /  0.0 mm
13:09 81.5 °F /  27.5 °C 54.1 °F /  12.3 °C 30.1 in /  1018.8 hPa ESE 6 mph /  9.7 km/h 6 mph /  9.7 km/h 39 % 0 in /  0.0 mm
13:14 80.4 °F /  26.9 °C 53.2 °F /  11.8 °C 30.1 in /  1018.8 hPa SSE 9.2 mph /  14.8 km/h 9.2 mph /  14.8 km/h 39 % 0 in /  0.0 mm
13:19 80.2 °F /  26.8 °C 53.1 °F /  11.7 °C 30.1 in /  1017.8 hPa NNE 9.2 mph /  14.8 km/h 9.2 mph /  14.8 km/h 39 % 0 in /  0.0 mm
13:24 79.7 °F /  26.5 °C 52.5 °F /  11.4 °C 30.1 in /  1017.8 hPa ENE 6.9 mph /  11.1 km/h 6.9 mph /  11.1 km/h 39 % 0 in /  0.0 mm
13:29 80.1 °F /  26.7 °C 52.9 °F /  11.6 °C 30.1 in /  1017.8 hPa ESE 10.4 mph /  16.7 km/h 10.4 mph /  16.7 km/h 39 % 0 in /  0.0 mm
13:34 80.2 °F /  26.8 °C 52.3 °F /  11.3 °C 30.1 in /  1017.8 hPa ENE 8.1 mph /  13.0 km/h 8.1 mph /  13.0 km/h 38 % 0 in /  0.0 mm
13:39 81.9 °F /  27.7 °C 53.8 °F /  12.1 °C 30.1 in /  1017.8 hPa South 3.5 mph /  5.6 km/h 3.5 mph /  5.6 km/h 38 % 0 in /  0.0 mm
13:44 83.3 °F /  28.5 °C 54.3 °F /  12.4 °C 30.1 in /  1017.8 hPa South 5.8 mph /  9.3 km/h 5.8 mph /  9.3 km/h 37 % 0 in /  0.0 mm
13:49 83.3 °F /  28.5 °C 53.6 °F /  12.0 °C 30 in /  1016.8 hPa SSE 7.6 mph /  12.2 km/h 7.6 mph /  12.2 km/h 36 % 0 in /  0.0 mm
13:54 84.2 °F /  29.0 °C 53.6 °F /  12.0 °C 30 in /  1016.8 hPa SW 5.8 mph /  9.3 km/h 5.8 mph /  9.3 km/h 35 % 0 in /  0.0 mm
13:59 84.6 °F /  29.2 °C 54 °F /  12.2 °C 30 in /  1016.8 hPa SW 8.1 mph /  13.0 km/h 8.1 mph /  13.0 km/h 35 % 0 in /  0.0 mm
14:04 84.6 °F /  29.2 °C 54 °F /  12.2 °C 30.1 in /  1017.8 hPa SSE 5.8 mph /  9.3 km/h 5.8 mph /  9.3 km/h 35 % 0 in /  0.0 mm
14:09 83.5 °F /  28.6 °C 52.9 °F /  11.6 °C 30.1 in /  1017.8 hPa SW 8.1 mph /  13.0 km/h 8.1 mph /  13.0 km/h 35 % 0 in /  0.0 mm
14:14 83.8 °F /  28.8 °C 51.6 °F /  10.9 °C 30.1 in /  1017.8 hPa South 3.8 mph /  6.1 km/h 3.8 mph /  6.1 km/h 33 % 0 in /  0.0 mm
14:19 84.2 °F /  29.0 °C 52 °F /  11.1 °C 30.1 in /  1017.8 hPa SSW 2.4 mph /  3.9 km/h 2.4 mph /  3.9 km/h 33 % 0 in /  0.0 mm
14:24 84.2 °F /  29.0 °C 52 °F /  11.1 °C 30.1 in /  1017.8 hPa SSE 6.9 mph /  11.1 km/h 6.9 mph /  11.1 km/h 33 % 0 in /  0.0 mm
14:29 83.7 °F /  28.7 °C 52.3 °F /  11.3 °C 30.1 in /  1017.8 hPa SW 10.4 mph /  16.7 km/h 10.4 mph /  16.7 km/h 34 % 0 in /  0.0 mm
14:34 84.4 °F /  29.1 °C 51.3 °F /  10.7 °C 30.1 in /  1017.8 hPa West 7.6 mph /  12.2 km/h 7.6 mph /  12.2 km/h 32 % 0 in /  0.0 mm
14:39 83.7 °F /  28.7 °C 50.7 °F /  10.4 °C 30.1 in /  1017.8 hPa South 3.5 mph /  5.6 km/h 3.5 mph /  5.6 km/h 32 % 0 in /  0.0 mm
14:44 84.2 °F /  29.0 °C 51.1 °F /  10.6 °C 30.1 in /  1017.8 hPa WSW 5.8 mph /  9.3 km/h 5.8 mph /  9.3 km/h 32 % 0 in /  0.0 mm
14:49 84.2 °F /  29.0 °C 50.4 °F /  10.2 °C 30.1 in /  1017.8 hPa SSW 8.1 mph /  13.0 km/h 8.1 mph /  13.0 km/h 31 % 0 in /  0.0 mm
14:54 83.8 °F /  28.8 °C 50 °F /  10.0 °C 30.1 in /  1017.8 hPa SW 8.1 mph /  13.0 km/h 8.1 mph /  13.0 km/h 31 % 0 in /  0.0 mm
14:59 84.4 °F /  29.1 °C 50.4 °F /  10.2 °C 30.1 in /  1017.8 hPa South 9.8 mph /  15.8 km/h 9.8 mph /  15.8 km/h 31 % 0 in /  0.0 mm
15:04 84.4 °F /  29.1 °C 50.4 °F /  10.2 °C 30.1 in /  1017.8 hPa SW 3.5 mph /  5.6 km/h 3.5 mph /  5.6 km/h 31 % 0 in /  0.0 mm
15:09 84.9 °F /  29.4 °C 50.9 °F /  10.5 °C 30.1 in /  1017.8 hPa SW 8.1 mph /  13.0 km/h 8.1 mph /  13.0 km/h 31 % 0 in /  0.0 mm
15:14 83.8 °F /  28.8 °C 50 °F /  10.0 °C 30.1 in /  1017.8 hPa SW 5.8 mph /  9.3 km/h 5.8 mph /  9.3 km/h 31 % 0 in /  0.0 mm
15:19 84 °F /  28.9 °C 50.2 °F /  10.1 °C 30.1 in /  1017.8 hPa SW 8.1 mph /  13.0 km/h 8.1 mph /  13.0 km/h 31 % 0 in /  0.0 mm
15:24 84.4 °F /  29.1 °C 49.6 °F /  9.8 °C 30.1 in /  1017.8 hPa SW 3.6 mph /  5.8 km/h 3.6 mph /  5.8 km/h 30 % 0 in /  0.0 mm
15:29 84.7 °F /  29.3 °C 49.8 °F /  9.9 °C 30.1 in /  1017.8 hPa WSW 6.9 mph /  11.1 km/h 6.9 mph /  11.1 km/h 30 % 0 in /  0.0 mm
15:34 84 °F /  28.9 °C 49.3 °F /  9.6 °C 30.1 in /  1017.8 hPa SSW 8.1 mph /  13.0 km/h 8.1 mph /  13.0 km/h 30 % 0 in /  0.0 mm
15:39 84.6 °F /  29.2 °C 49.6 °F /  9.8 °C 30.1 in /  1017.8 hPa WSW 4.9 mph /  7.9 km/h 4.9 mph /  7.9 km/h 30 % 0 in /  0.0 mm
15:44 84.4 °F /  29.1 °C 48.6 °F /  9.2 °C 30.1 in /  1017.8 hPa South 8.1 mph /  13.0 km/h 8.1 mph /  13.0 km/h 29 % 0 in /  0.0 mm
15:49 84.9 °F /  29.4 °C 50 °F /  10.0 °C 30.1 in /  1017.8 hPa SSW 8.1 mph /  13.0 km/h 8.1 mph /  13.0 km/h 30 % 0 in /  0.0 mm
15:54 83.7 °F /  28.7 °C 48.9 °F /  9.4 °C 30.1 in /  1017.8 hPa WSW 5.8 mph /  9.3 km/h 5.8 mph /  9.3 km/h 30 % 0 in /  0.0 mm
15:55 83.7 °F /  28.7 °C 48.9 °F /  9.4 °C 30.1 in /  1017.8 hPa SW 5.8 mph /  9.3 km/h 5.8 mph /  9.3 km/h 30 % 0 in /  0.0 mm
16:00 84.2 °F /  29.0 °C 48.6 °F /  9.2 °C 30.1 in /  1017.8 hPa SW 8.7 mph /  14.0 km/h 8.7 mph /  14.0 km/h 29 % 0 in /  0.0 mm
16:05 83.8 °F /  28.8 °C 49.1 °F /  9.5 °C 30.1 in /  1017.8 hPa SSW 8.1 mph /  13.0 km/h 8.1 mph /  13.0 km/h 30 % 0 in /  0.0 mm
16:10 84.4 °F /  29.1 °C 48.6 °F /  9.2 °C 30.1 in /  1017.8 hPa SW 11.4 mph /  18.3 km/h 11.4 mph /  18.3 km/h 29 % 0 in /  0.0 mm
16:15 83.7 °F /  28.7 °C 48.9 °F /  9.4 °C 30.1 in /  1017.8 hPa WSW 10.4 mph /  16.7 km/h 10.4 mph /  16.7 km/h 30 % 0 in /  0.0 mm
16:20 83.7 °F /  28.7 °C 48.9 °F /  9.4 °C 30 in /  1016.8 hPa SW 8.1 mph /  13.0 km/h 8.1 mph /  13.0 km/h 30 % 0 in /  0.0 mm
16:25 83.7 °F /  28.7 °C 48.9 °F /  9.4 °C 30 in /  1016.8 hPa South 5.8 mph /  9.3 km/h 5.8 mph /  9.3 km/h 30 % 0 in /  0.0 mm
16:30 84 °F /  28.9 °C 49.3 °F /  9.6 °C 30 in /  1016.8 hPa SW 5.8 mph /  9.3 km/h 5.8 mph /  9.3 km/h 30 % 0 in /  0.0 mm
16:35 83.1 °F /  28.4 °C 48.6 °F /  9.2 °C 30 in /  1015.8 hPa SSW 9.2 mph /  14.8 km/h 9.2 mph /  14.8 km/h 30 % 0 in /  0.0 mm
16:40 83.7 °F /  28.7 °C 48.9 °F /  9.4 °C 30 in /  1015.8 hPa WSW 8.1 mph /  13.0 km/h 8.1 mph /  13.0 km/h 30 % 0 in /  0.0 mm
16:45 83.1 °F /  28.4 °C 48.6 °F /  9.2 °C 30 in /  1015.8 hPa SSW 8.1 mph /  13.0 km/h 8.1 mph /  13.0 km/h 30 % 0 in /  0.0 mm
16:50 83.8 °F /  28.8 °C 49.1 °F /  9.5 °C 30 in /  1016.8 hPa West 6.9 mph /  11.1 km/h 6.9 mph /  11.1 km/h 30 % 0 in /  0.0 mm
16:55 83.1 °F /  28.4 °C 47.7 °F /  8.7 °C 30 in /  1016.8 hPa SW 10.4 mph /  16.7 km/h 10.4 mph /  16.7 km/h 29 % 0 in /  0.0 mm
17:00 82.6 °F /  28.1 °C 48 °F /  8.9 °C 30 in /  1016.8 hPa SSW 11.5 mph /  18.5 km/h 11.5 mph /  18.5 km/h 30 % 0 in /  0.0 mm
17:05 83.7 °F /  28.7 °C 48.9 °F /  9.4 °C 30 in /  1015.8 hPa SW 5.8 mph /  9.3 km/h 5.8 mph /  9.3 km/h 30 % 0 in /  0.0 mm
17:10 83.7 °F /  28.7 °C 48.9 °F /  9.4 °C 30 in /  1015.8 hPa West 6.9 mph /  11.1 km/h 6.9 mph /  11.1 km/h 30 % 0 in /  0.0 mm
17:15 83.8 °F /  28.8 °C 49.1 °F /  9.5 °C 30 in /  1015.8 hPa South 5.8 mph /  9.3 km/h 5.8 mph /  9.3 km/h 30 % 0 in /  0.0 mm
17:20 83.8 °F /  28.8 °C 49.1 °F /  9.5 °C 30 in /  1016.8 hPa SSW 6.9 mph /  11.1 km/h 6.9 mph /  11.1 km/h 30 % 0 in /  0.0 mm
17:25 83.7 °F /  28.7 °C 48.9 °F /  9.4 °C 30 in /  1016.8 hPa SW 9.2 mph /  14.8 km/h 9.2 mph /  14.8 km/h 30 % 0 in /  0.0 mm
17:30 83.3 °F /  28.5 °C 48.6 °F /  9.2 °C 30 in /  1016.8 hPa SW 6.9 mph /  11.1 km/h 6.9 mph /  11.1 km/h 30 % 0 in /  0.0 mm
17:35 83.5 °F /  28.6 °C 47.8 °F /  8.8 °C 30 in /  1016.8 hPa SSW 6.2 mph /  10.0 km/h 6.2 mph /  10.0 km/h 29 % 0 in /  0.0 mm
17:40 83.3 °F /  28.5 °C 48.6 °F /  9.2 °C 30 in /  1016.8 hPa WSW 5.8 mph /  9.3 km/h 5.8 mph /  9.3 km/h 30 % 0 in /  0.0 mm
17:45 83.5 °F /  28.6 °C 48.7 °F /  9.3 °C 30 in /  1016.8 hPa West 2.9 mph /  4.7 km/h 2.9 mph /  4.7 km/h 30 % 0 in /  0.0 mm
17:50 83.7 °F /  28.7 °C 48.9 °F /  9.4 °C 30 in /  1015.8 hPa South 7.8 mph /  12.6 km/h 7.8 mph /  12.6 km/h 30 % 0 in /  0.0 mm
17:55 83.5 °F /  28.6 °C 48.7 °F /  9.3 °C 30 in /  1015.8 hPa South 2.6 mph /  4.2 km/h 2.6 mph /  4.2 km/h 30 % 0 in /  0.0 mm
18:00 83.3 °F /  28.5 °C 47.7 °F /  8.7 °C 30 in /  1015.8 hPa SSW 5.8 mph /  9.3 km/h 5.8 mph /  9.3 km/h 29 % 0 in /  0.0 mm
18:05 83.7 °F /  28.7 °C 48.9 °F /  9.4 °C 30 in /  1015.8 hPa SW 6.9 mph /  11.1 km/h 6.9 mph /  11.1 km/h 30 % 0 in /  0.0 mm
18:10 83.1 °F /  28.4 °C 47.7 °F /  8.7 °C 30 in /  1015.8 hPa ESE 2.3 mph /  3.7 km/h 2.3 mph /  3.7 km/h 29 % 0 in /  0.0 mm
18:15 81.3 °F /  27.4 °C 46.9 °F /  8.3 °C 30 in /  1015.8 hPa SSW 4.6 mph /  7.4 km/h 4.6 mph /  7.4 km/h 30 % 0 in /  0.0 mm
18:20 82 °F /  27.8 °C 47.5 °F /  8.6 °C 30 in /  1016.8 hPa SSW 4.6 mph /  7.4 km/h 4.6 mph /  7.4 km/h 30 % 0 in /  0.0 mm
18:25 82.4 °F /  28.0 °C 47.8 °F /  8.8 °C 30 in /  1016.8 hPa SSW 4.6 mph /  7.4 km/h 4.6 mph /  7.4 km/h 30 % 0 in /  0.0 mm
18:30 82.2 °F /  27.9 °C 47.7 °F /  8.7 °C 30 in /  1016.8 hPa SSE 2.3 mph /  3.7 km/h 2.3 mph /  3.7 km/h 30 % 0 in /  0.0 mm
18:35 81.7 °F /  27.6 °C 47.1 °F /  8.4 °C 30 in /  1016.8 hPa SSW 4.6 mph /  7.4 km/h 4.6 mph /  7.4 km/h 30 % 0 in /  0.0 mm
18:40 82.2 °F /  27.9 °C 48.6 °F /  9.2 °C 30 in /  1016.8 hPa WSW 4.6 mph /  7.4 km/h 4.6 mph /  7.4 km/h 31 % 0 in /  0.0 mm
18:45 82 °F /  27.8 °C 48.4 °F /  9.1 °C 30 in /  1016.8 hPa SSE 4.6 mph /  7.4 km/h 4.6 mph /  7.4 km/h 31 % 0 in /  0.0 mm
18:50 81.7 °F /  27.6 °C 48 °F /  8.9 °C 30 in /  1015.8 hPa SSE 4.6 mph /  7.4 km/h 4.6 mph /  7.4 km/h 31 % 0 in /  0.0 mm
18:55 81.1 °F /  27.3 °C 47.7 °F /  8.7 °C 30 in /  1015.8 hPa WSW 8.1 mph /  13.0 km/h 8.1 mph /  13.0 km/h 31 % 0 in /  0.0 mm
19:00 80.8 °F /  27.1 °C 47.3 °F /  8.5 °C 30 in /  1015.8 hPa SW 5.8 mph /  9.3 km/h 5.8 mph /  9.3 km/h 31 % 0 in /  0.0 mm
19:05 80.8 °F /  27.1 °C 48.2 °F /  9.0 °C 30 in /  1016.8 hPa West 8.7 mph /  14.0 km/h 8.7 mph /  14.0 km/h 32 % 0 in /  0.0 mm
19:10 79.9 °F /  26.6 °C 47.5 °F /  8.6 °C 30 in /  1016.8 hPa SW 8.1 mph /  13.0 km/h 8.1 mph /  13.0 km/h 32 % 0 in /  0.0 mm
19:15 79 °F /  26.1 °C 46.6 °F /  8.1 °C 30 in /  1016.8 hPa SW 6.9 mph /  11.1 km/h 6.9 mph /  11.1 km/h 32 % 0 in /  0.0 mm
19:20 78.3 °F /  25.7 °C 46 °F /  7.8 °C 30 in /  1015.8 hPa South 6.9 mph /  11.1 km/h 6.9 mph /  11.1 km/h 32 % 0 in /  0.0 mm
19:25 77.9 °F /  25.5 °C 45.7 °F /  7.6 °C 30 in /  1015.8 hPa SSW 5.8 mph /  9.3 km/h 5.8 mph /  9.3 km/h 32 % 0 in /  0.0 mm
19:30 77.5 °F /  25.3 °C 46.2 °F /  7.9 °C 30 in /  1015.8 hPa SW 5.8 mph /  9.3 km/h 5.8 mph /  9.3 km/h 33 % 0 in /  0.0 mm
19:35 77 °F /  25.0 °C 45.7 °F /  7.6 °C 30 in /  1015.8 hPa West 6.9 mph /  11.1 km/h 6.9 mph /  11.1 km/h 33 % 0 in /  0.0 mm
19:40 76.8 °F /  24.9 °C 47.1 °F /  8.4 °C 30 in /  1015.8 hPa SW 6.2 mph /  10.0 km/h 6.2 mph /  10.0 km/h 35 % 0 in /  0.0 mm
19:45 76.5 °F /  24.7 °C 46.8 °F /  8.2 °C 30 in /  1015.8 hPa SW 4.6 mph /  7.4 km/h 4.6 mph /  7.4 km/h 35 % 0 in /  0.0 mm
19:50 76.1 °F /  24.5 °C 46.6 °F /  8.1 °C 30 in /  1015.8 hPa SW 8.1 mph /  13.0 km/h 8.1 mph /  13.0 km/h 35 % 0 in /  0.0 mm
19:55 75.7 °F /  24.3 °C 46.9 °F /  8.3 °C 30 in /  1015.8 hPa SW 5.8 mph /  9.3 km/h 5.8 mph /  9.3 km/h 36 % 0 in /  0.0 mm
20:00 75.4 °F /  24.1 °C 47.3 °F /  8.5 °C 30 in /  1015.8 hPa WSW 6.9 mph /  11.1 km/h 6.9 mph /  11.1 km/h 37 % 0 in /  0.0 mm
20:05 75 °F /  23.9 °C 46.9 °F /  8.3 °C 30 in /  1016.8 hPa SW 9.2 mph /  14.8 km/h 9.2 mph /  14.8 km/h 37 % 0 in /  0.0 mm
20:10 74.7 °F /  23.7 °C 47.5 °F /  8.6 °C 30 in /  1016.8 hPa WSW 4.6 mph /  7.4 km/h 4.6 mph /  7.4 km/h 38 % 0 in /  0.0 mm
20:15 74.5 °F /  23.6 °C 47.1 °F /  8.4 °C 30 in /  1016.8 hPa SW 6.9 mph /  11.1 km/h 6.9 mph /  11.1 km/h 38 % 0 in /  0.0 mm
20:20 74.3 °F /  23.5 °C 46.9 °F /  8.3 °C 30 in /  1016.8 hPa SW 4.6 mph /  7.4 km/h 4.6 mph /  7.4 km/h 38 % 0 in /  0.0 mm
20:25 73.9 °F /  23.3 °C 47.5 °F /  8.6 °C 30 in /  1016.8 hPa WSW 3.5 mph /  5.6 km/h 3.5 mph /  5.6 km/h 39 % 0 in /  0.0 mm
20:30 73.8 °F /  23.2 °C 47.8 °F /  8.8 °C 30 in /  1016.8 hPa SSW 4.6 mph /  7.4 km/h 4.6 mph /  7.4 km/h 40 % 0 in /  0.0 mm
20:35 73.8 °F /  23.2 °C 47.8 °F /  8.8 °C 30.1 in /  1017.8 hPa SW 2.3 mph /  3.7 km/h 2.3 mph /  3.7 km/h 40 % 0 in /  0.0 mm
20:40 73.4 °F /  23.0 °C 47.7 °F /  8.7 °C 30.1 in /  1017.8 hPa SSW 4 mph /  6.4 km/h 4 mph /  6.4 km/h 40 % 0 in /  0.0 mm
20:45 73.4 °F /  23.0 °C 48.4 °F /  9.1 °C 30.1 in /  1017.8 hPa WSW 3.5 mph /  5.6 km/h 3.5 mph /  5.6 km/h 41 % 0 in /  0.0 mm
20:50 73.2 °F /  22.9 °C 48 °F /  8.9 °C 30.1 in /  1017.8 hPa WSW 3.6 mph /  5.8 km/h 3.6 mph /  5.8 km/h 41 % 0 in /  0.0 mm
20:55 73.2 °F /  22.9 °C 48.7 °F /  9.3 °C 30.1 in /  1017.8 hPa SW 6.2 mph /  10.0 km/h 6.2 mph /  10.0 km/h 42 % 0 in /  0.0 mm
21:00 72.9 °F /  22.7 °C 48.4 °F /  9.1 °C 30.1 in /  1017.8 hPa WSW 3.8 mph /  6.1 km/h 3.8 mph /  6.1 km/h 42 % 0 in /  0.0 mm
21:05 72.7 °F /  22.6 °C 48.4 °F /  9.1 °C 30.1 in /  1017.8 hPa SW 4.9 mph /  7.9 km/h 4.9 mph /  7.9 km/h 42 % 0 in /  0.0 mm
21:10 72.7 °F /  22.6 °C 48.4 °F /  9.1 °C 30.1 in /  1017.8 hPa WSW 3.5 mph /  5.6 km/h 3.5 mph /  5.6 km/h 42 % 0 in /  0.0 mm
21:15 72.5 °F /  22.5 °C 48 °F /  8.9 °C 30.1 in /  1017.8 hPa SW 2.3 mph /  3.7 km/h 2.3 mph /  3.7 km/h 42 % 0 in /  0.0 mm
21:20 72.3 °F /  22.4 °C 47.8 °F /  8.8 °C 30.1 in /  1017.8 hPa SW 2.6 mph /  4.2 km/h 2.6 mph /  4.2 km/h 42 % 0 in /  0.0 mm
21:25 72 °F /  22.2 °C 47.7 °F /  8.7 °C 30.1 in /  1017.8 hPa SW 3.5 mph /  5.6 km/h 3.5 mph /  5.6 km/h 42 % 0 in /  0.0 mm
21:30 71.8 °F /  22.1 °C 47.5 °F /  8.6 °C 30.1 in /  1017.8 hPa SW 2.3 mph /  3.7 km/h 2.3 mph /  3.7 km/h 42 % 0 in /  0.0 mm
21:35 71.6 °F /  22.0 °C 47.8 °F /  8.8 °C 30.1 in /  1017.8 hPa SW 2.3 mph /  3.7 km/h 2.3 mph /  3.7 km/h 43 % 0 in /  0.0 mm
21:40 71.6 °F /  22.0 °C 47.8 °F /  8.8 °C 30.1 in /  1017.8 hPa SW 2.4 mph /  3.9 km/h 2.4 mph /  3.9 km/h 43 % 0 in /  0.0 mm
21:45 71.2 °F /  21.8 °C 47.7 °F /  8.7 °C 30.1 in /  1017.8 hPa WSW 2.2 mph /  3.5 km/h   43 % 0 in /  0.0 mm
21:50 71.1 °F /  21.7 °C 47.5 °F /  8.6 °C 30.1 in /  1017.8 hPa Calm     43 % 0 in /  0.0 mm
21:55 70.9 °F /  21.6 °C 47.3 °F /  8.5 °C 30.1 in /  1017.8 hPa Calm     43 % 0 in /  0.0 mm
22:00 70.7 °F /  21.5 °C 47.1 °F /  8.4 °C 30.1 in /  1017.8 hPa Calm     43 % 0 in /  0.0 mm
22:05 70.5 °F /  21.4 °C 47.5 °F /  8.6 °C 30.1 in /  1017.8 hPa Calm     44 % 0 in /  0.0 mm
22:10 70.5 °F /  21.4 °C 47.5 °F /  8.6 °C 30.1 in /  1017.8 hPa WSW 2.3 mph /  3.7 km/h 2.3 mph /  3.7 km/h 44 % 0 in /  0.0 mm
22:11 70.5 °F /  21.4 °C 47.5 °F /  8.6 °C 30.1 in /  1017.8 hPa WSW 2.3 mph /  3.7 km/h 2.3 mph /  3.7 km/h 44 % 0 in /  0.0 mm
22:15 63.1 °F /  17.3 °C 52 °F /  11.1 °C 30.1 in /  1017.8 hPa SW 1 mph /  1.6 km/h 2 mph /  3.2 km/h 67 % 0 in /  0.0 mm
22:16 70.3 °F /  21.3 °C 47.5 °F /  8.6 °C 30.1 in /  1017.8 hPa NW 1.4 mph /  2.3 km/h   44 % 0 in /  0.0 mm
22:21 70.2 °F /  21.2 °C 47.1 °F /  8.4 °C 30.1 in /  1017.8 hPa Calm     44 % 0 in /  0.0 mm
22:25 63.3 °F /  17.4 °C 52.5 °F /  11.4 °C 30.1 in /  1017.8 hPa Calm   2 mph /  3.2 km/h 68 % 0 in /  0.0 mm
22:26 70 °F /  21.1 °C 47.7 °F /  8.7 °C 30.1 in /  1017.8 hPa NNE 1.4 mph /  2.3 km/h 1.4 mph /  2.3 km/h 45 % 0 in /  0.0 mm
22:31 69.8 °F /  21.0 °C 47.5 °F /  8.6 °C 30.1 in /  1017.8 hPa NE 2.3 mph /  3.7 km/h 2.3 mph /  3.7 km/h 45 % 0 in /  0.0 mm
22:35 63.7 °F /  17.6 °C 53.8 °F /  12.1 °C 30.1 in /  1017.8 hPa Calm   2 mph /  3.2 km/h 70 % 0 in /  0.0 mm
22:36 69.8 °F /  21.0 °C 48 °F /  8.9 °C 30 in /  1016.8 hPa NE 1.2 mph /  1.9 km/h   46 % 0 in /  0.0 mm
22:41 69.6 °F /  20.9 °C 49.1 °F /  9.5 °C 30 in /  1016.8 hPa NE 1.6 mph /  2.6 km/h 1.6 mph /  2.6 km/h 48 % 0 in /  0.0 mm
22:45 63.7 °F /  17.6 °C 53.8 °F /  12.1 °C 30.1 in /  1017.8 hPa Calm   2 mph /  3.2 km/h 70 % 0 in /  0.0 mm
22:46 69.4 °F /  20.8 °C 50 °F /  10.0 °C 30 in /  1016.8 hPa East 1.2 mph /  1.9 km/h 1.2 mph /  1.9 km/h 50 % 0 in /  0.0 mm
22:51 69.3 °F /  20.7 °C 50.4 °F /  10.2 °C 30.1 in /  1017.8 hPa ENE 2.3 mph /  3.7 km/h 2.3 mph /  3.7 km/h 51 % 0 in /  0.0 mm
22:55 63.5 °F /  17.5 °C 53.1 °F /  11.7 °C 30.1 in /  1017.8 hPa Calm     69 % 0 in /  0.0 mm
22:56 69.1 °F /  20.6 °C 50.7 °F /  10.4 °C 30.1 in /  1017.8 hPa NNE 1.6 mph /  2.6 km/h 1.6 mph /  2.6 km/h 52 % 0 in /  0.0 mm
23:01 68.9 °F /  20.5 °C 51.1 °F /  10.6 °C 30.1 in /  1017.8 hPa NNE 1.2 mph /  1.9 km/h   53 % 0 in /  0.0 mm
23:05 63.3 °F /  17.4 °C 53.1 °F /  11.7 °C 30.1 in /  1017.8 hPa Calm   1 mph /  1.6 km/h 69 % 0 in /  0.0 mm
23:06 68.7 °F /  20.4 °C 51.4 °F /  10.8 °C 30.1 in /  1018.8 hPa Calm     54 % 0 in /  0.0 mm
23:11 68.7 °F /  20.4 °C 51.4 °F /  10.8 °C 30.1 in /  1018.8 hPa Calm     54 % 0 in /  0.0 mm
23:15 63.1 °F /  17.3 °C 53.2 °F /  11.8 °C 30.1 in /  1017.8 hPa NE 1 mph /  1.6 km/h 1 mph /  1.6 km/h 70 % 0 in /  0.0 mm
23:16 68.5 °F /  20.3 °C 51.3 °F /  10.7 °C 30.1 in /  1018.8 hPa SW 2.3 mph /  3.7 km/h 2.3 mph /  3.7 km/h 54 % 0 in /  0.0 mm
23:21 68.4 °F /  20.2 °C 51.1 °F /  10.6 °C 30.1 in /  1017.8 hPa Calm     54 % 0 in /  0.0 mm
23:25 63 °F /  17.2 °C 53.1 °F /  11.7 °C 30.1 in /  1017.8 hPa Calm     70 % 0 in /  0.0 mm
23:26 68.4 °F /  20.2 °C 51.6 °F /  10.9 °C 30.1 in /  1017.8 hPa Calm     55 % 0 in /  0.0 mm
23:31 68.4 °F /  20.2 °C 51.6 °F /  10.9 °C 30.1 in /  1017.8 hPa Calm     55 % 0 in /  0.0 mm
23:35 62.8 °F /  17.1 °C 52.9 °F /  11.6 °C 30 in /  1016.8 hPa Calm   1 mph /  1.6 km/h 70 % 0 in /  0.0 mm
23:36 68.2 °F /  20.1 °C 51.4 °F /  10.8 °C 30.1 in /  1018.8 hPa Calm     55 % 0 in /  0.0 mm
23:41 68 °F /  20.0 °C 51.3 °F /  10.7 °C 30.1 in /  1018.8 hPa SW 0.9 mph /  1.4 km/h   55 % 0 in /  0.0 mm
23:45 62.8 °F /  17.1 °C 52.9 °F /  11.6 °C 30 in /  1016.8 hPa Calm     70 % 0 in /  0.0 mm
23:46 67.8 °F /  19.9 °C 50.5 °F /  10.3 °C 30.1 in /  1018.8 hPa WSW 1.2 mph /  1.9 km/h   54 % 0 in /  0.0 mm
23:51 67.8 °F /  19.9 °C 50.2 °F /  10.1 °C 30.1 in /  1018.8 hPa WNW 2.3 mph /  3.7 km/h 2.3 mph /  3.7 km/h 53 % 0 in /  0.0 mm
23:55 62.8 °F /  17.1 °C 52.9 °F /  11.6 °C 30 in /  1016.8 hPa NE 1 mph /  1.6 km/h 2 mph /  3.2 km/h 70 % 0 in /  0.0 mm
23:56 67.6 °F /  19.8 °C 49.8 °F /  9.9 °C 30.1 in /  1018.8 hPa Calm     53 % 0 in /  0.0 mm
Meteo Sesrovires
Elogis d' Weather Underground - 3.75 mb

Guio original per  Jim McMurry - jmcmurry@mwt.net Adaptat per a la plantilla per  Wim van der Kuil - Leuven-Template.eu

Trobareu la nostra informacio del temps tambe a:

Weather Underground

AWEKAS